createdAt,value
2022-09-16T00:01:18.228Z,13.70
2022-09-16T00:03:45.640Z,13.70
2022-09-16T00:06:19.550Z,13.70
2022-09-16T00:08:47.651Z,13.70
2022-09-16T00:11:15.323Z,13.70
2022-09-16T00:13:42.592Z,13.60
2022-09-16T00:16:11.804Z,13.70
2022-09-16T00:18:39.068Z,13.70
2022-09-16T00:21:09.510Z,13.70
2022-09-16T00:23:36.974Z,13.70
2022-09-16T00:26:04.301Z,13.70
2022-09-16T00:28:31.599Z,13.70
2022-09-16T00:31:00.034Z,13.70
2022-09-16T00:33:27.556Z,13.70
2022-09-16T00:36:07.570Z,13.80
2022-09-16T00:38:34.855Z,13.70
2022-09-16T00:41:02.169Z,13.70
2022-09-16T00:43:29.402Z,13.80
2022-09-16T00:46:01.472Z,13.80
2022-09-16T00:48:30.019Z,13.80
2022-09-16T00:51:00.536Z,13.80
2022-09-16T00:53:52.045Z,13.80
2022-09-16T00:56:19.383Z,13.80
2022-09-16T00:58:48.774Z,13.80
2022-09-16T01:01:16.067Z,13.80
2022-09-16T01:03:46.897Z,13.80
2022-09-16T01:06:14.124Z,13.90
2022-09-16T01:08:42.496Z,13.90
2022-09-16T01:11:09.800Z,13.90
2022-09-16T01:13:37.408Z,13.90
2022-09-16T01:16:22.311Z,13.80
2022-09-16T01:19:01.835Z,13.80
2022-09-16T01:21:41.122Z,13.80
2022-09-16T01:24:40.548Z,13.70
2022-09-16T01:27:26.436Z,13.70
2022-09-16T01:30:19.833Z,13.70
2022-09-16T01:33:31.553Z,13.60
2022-09-16T01:36:17.483Z,13.60
2022-09-16T01:39:08.434Z,13.60
2022-09-16T01:41:55.216Z,13.60
2022-09-16T01:44:53.258Z,13.50
2022-09-16T01:47:54.674Z,13.50
2022-09-16T01:50:27.685Z,13.50
2022-09-16T01:53:08.087Z,13.50
2022-09-16T01:55:51.643Z,13.50
2022-09-16T01:58:34.548Z,13.50
2022-09-16T02:01:05.265Z,13.50
2022-09-16T02:03:36.737Z,13.50
2022-09-16T02:06:06.729Z,13.50
2022-09-16T02:08:35.986Z,13.60
2022-09-16T02:11:04.813Z,13.60
2022-09-16T02:13:37.054Z,13.60
2022-09-16T02:16:12.541Z,13.60
2022-09-16T02:18:41.231Z,13.60
2022-09-16T02:21:10.834Z,13.60
2022-09-16T02:23:40.333Z,13.70
2022-09-16T02:26:09.612Z,13.70
2022-09-16T02:28:39.938Z,13.70
2022-09-16T02:31:08.551Z,13.80
2022-09-16T02:33:47.920Z,13.80
2022-09-16T02:36:16.351Z,13.80
2022-09-16T02:38:45.728Z,13.80
2022-09-16T02:41:14.837Z,13.80
2022-09-16T02:43:42.268Z,13.80
2022-09-16T02:46:09.524Z,13.80
2022-09-16T02:48:48.084Z,13.80
2022-09-16T02:51:38.533Z,13.80
2022-09-16T02:54:39.872Z,13.80
2022-09-16T02:57:07.084Z,13.80
2022-09-16T02:59:34.296Z,13.80
2022-09-16T03:02:01.648Z,13.80
2022-09-16T03:04:28.999Z,13.90
2022-09-16T03:06:56.278Z,13.90
2022-09-16T03:09:24.203Z,13.90
2022-09-16T03:12:10.022Z,13.90
2022-09-16T03:15:10.282Z,13.90
2022-09-16T03:17:46.455Z,13.90
2022-09-16T03:20:16.453Z,13.90
2022-09-16T03:22:58.779Z,13.90
2022-09-16T03:25:39.526Z,13.90
2022-09-16T03:28:18.245Z,13.90
2022-09-16T03:31:05.376Z,13.90
2022-09-16T03:33:52.244Z,13.90
2022-09-16T03:36:20.651Z,13.90
2022-09-16T03:38:48.581Z,13.90
2022-09-16T03:41:16.053Z,13.90
2022-09-16T03:44:00.189Z,13.80
2022-09-16T03:46:30.284Z,13.90
2022-09-16T03:48:57.608Z,13.90
2022-09-16T03:51:25.080Z,13.90
2022-09-16T03:53:52.805Z,13.90
2022-09-16T03:56:20.149Z,13.90
2022-09-16T03:58:47.906Z,13.90
2022-09-16T04:01:15.271Z,13.90
2022-09-16T04:03:42.569Z,13.90
2022-09-16T04:06:09.930Z,13.90
2022-09-16T04:08:37.458Z,13.90
2022-09-16T04:11:05.567Z,13.90
2022-09-16T04:13:33.463Z,13.90
2022-09-16T04:16:01.522Z,13.90
2022-09-16T04:18:30.710Z,13.90
2022-09-16T04:20:58.946Z,13.90
2022-09-16T04:23:26.814Z,13.90
2022-09-16T04:26:03.243Z,13.90
2022-09-16T04:28:31.344Z,13.80
2022-09-16T04:31:02.908Z,13.80
2022-09-16T04:33:31.106Z,13.80
2022-09-16T04:36:15.743Z,13.90
2022-09-16T04:38:43.867Z,13.90
2022-09-16T04:41:22.030Z,13.90
2022-09-16T04:43:56.704Z,13.90
2022-09-16T04:46:24.829Z,13.90
2022-09-16T04:48:52.406Z,13.90
2022-09-16T04:51:19.901Z,13.90
2022-09-16T04:53:47.289Z,13.90
2022-09-16T04:56:20.258Z,13.90
2022-09-16T04:58:49.700Z,13.90
2022-09-16T05:01:21.867Z,14.00
2022-09-16T05:03:50.934Z,14.00
2022-09-16T05:06:22.818Z,14.00
2022-09-16T05:08:50.682Z,14.00
2022-09-16T05:11:22.136Z,14.00
2022-09-16T05:13:49.570Z,14.00
2022-09-16T05:16:18.626Z,14.00
2022-09-16T05:18:47.588Z,14.00
2022-09-16T05:21:19.953Z,14.00
2022-09-16T05:23:47.447Z,13.90
2022-09-16T05:26:16.958Z,13.90
2022-09-16T05:28:44.453Z,13.90
2022-09-16T05:31:13.958Z,13.90
2022-09-16T05:33:42.351Z,13.90
2022-09-16T05:36:11.589Z,13.90
2022-09-16T05:38:38.783Z,13.90
2022-09-16T05:41:06.318Z,13.80
2022-09-16T05:43:33.664Z,13.80
2022-09-16T05:46:01.349Z,13.80
2022-09-16T05:48:28.751Z,13.80
2022-09-16T05:51:03.726Z,13.80
2022-09-16T05:53:31.597Z,13.70
2022-09-16T05:56:09.836Z,13.80
2022-09-16T05:59:18.632Z,13.70
2022-09-16T06:01:46.590Z,13.80
2022-09-16T06:04:14.669Z,13.80
2022-09-16T06:06:45.832Z,13.80
2022-09-16T06:09:17.755Z,13.80
2022-09-16T06:11:46.754Z,13.80
2022-09-16T06:14:14.286Z,13.80
2022-09-16T06:16:41.840Z,13.80
2022-09-16T06:19:12.992Z,13.90
2022-09-16T06:21:41.017Z,13.90
2022-09-16T06:24:08.713Z,13.90
2022-09-16T06:26:37.215Z,13.90
2022-09-16T06:29:05.734Z,13.90
2022-09-16T06:31:33.032Z,13.90
2022-09-16T06:34:00.264Z,13.90
2022-09-16T06:36:32.347Z,13.90
2022-09-16T06:38:59.661Z,13.90
2022-09-16T06:41:26.874Z,13.90
2022-09-16T06:43:54.086Z,13.90
2022-09-16T06:46:25.443Z,13.90
2022-09-16T06:48:54.101Z,13.90
2022-09-16T06:51:31.370Z,13.90
2022-09-16T06:54:03.696Z,13.90
2022-09-16T06:56:31.205Z,13.90
2022-09-16T06:58:58.622Z,13.90
2022-09-16T07:01:29.193Z,13.90
2022-09-16T07:03:57.554Z,13.90
2022-09-16T07:06:42.890Z,13.90
2022-09-16T07:09:13.536Z,13.80
2022-09-16T07:11:40.814Z,13.80
2022-09-16T07:14:08.385Z,13.80
2022-09-16T07:16:35.687Z,13.80
2022-09-16T07:19:03.696Z,13.80
2022-09-16T07:21:31.111Z,13.80
2022-09-16T07:23:59.377Z,13.80
2022-09-16T07:26:28.360Z,13.80
2022-09-16T07:28:55.962Z,13.80
2022-09-16T07:31:25.311Z,13.80
2022-09-16T07:33:54.006Z,13.80
2022-09-16T07:36:23.493Z,13.80
2022-09-16T07:38:51.347Z,13.90
2022-09-16T07:41:21.695Z,14.00
2022-09-16T07:43:48.979Z,14.00
2022-09-16T07:46:17.411Z,14.00
2022-09-16T07:48:47.250Z,14.10
2022-09-16T07:51:19.099Z,14.10
2022-09-16T07:53:46.770Z,14.10
2022-09-16T07:56:16.978Z,14.10
2022-09-16T07:58:46.316Z,14.10
2022-09-16T08:01:15.239Z,14.10
2022-09-16T08:03:43.173Z,14.10
2022-09-16T08:06:21.785Z,14.20
2022-09-16T08:08:51.164Z,14.20
2022-09-16T08:11:18.442Z,14.20
2022-09-16T08:13:46.378Z,14.20
2022-09-16T08:16:18.823Z,14.20
2022-09-16T08:18:47.408Z,14.30
2022-09-16T08:21:16.580Z,14.30
2022-09-16T08:23:43.952Z,14.30
2022-09-16T08:26:12.291Z,14.40
2022-09-16T08:29:04.619Z,14.40
2022-09-16T08:31:29.120Z,14.40
2022-09-16T08:33:56.369Z,14.50
2022-09-16T08:36:24.626Z,14.50
2022-09-16T08:38:54.394Z,14.50
2022-09-16T08:42:00.125Z,14.60
2022-09-16T08:44:46.114Z,14.60
2022-09-16T08:47:48.221Z,14.60
2022-09-16T08:50:17.865Z,14.60
2022-09-16T08:52:45.421Z,14.60
2022-09-16T08:55:19.092Z,14.60
2022-09-16T08:57:55.829Z,14.60
2022-09-16T09:00:23.136Z,14.70
2022-09-16T09:03:02.613Z,14.70
2022-09-16T09:05:52.870Z,14.70
2022-09-16T09:08:26.842Z,14.70
2022-09-16T09:11:12.177Z,14.70
2022-09-16T09:14:04.412Z,14.80
2022-09-16T09:16:34.518Z,14.70
2022-09-16T09:19:19.577Z,14.70
2022-09-16T09:21:56.509Z,14.70
2022-09-16T09:24:28.300Z,14.70
2022-09-16T09:27:04.793Z,14.70
2022-09-16T09:29:35.106Z,14.70
2022-09-16T09:32:24.294Z,14.70
2022-09-16T09:35:10.310Z,14.70
2022-09-16T09:37:43.368Z,14.60
2022-09-16T09:40:37.656Z,14.70
2022-09-16T09:43:11.630Z,14.70
2022-09-16T09:45:43.533Z,14.70
2022-09-16T09:48:24.706Z,14.60
2022-09-16T09:50:52.538Z,14.60
2022-09-16T09:53:28.698Z,14.60
2022-09-16T09:56:21.520Z,14.60
2022-09-16T09:59:14.265Z,14.50
2022-09-16T10:01:41.478Z,14.50
2022-09-16T10:04:15.307Z,14.40
2022-09-16T10:06:42.632Z,14.30
2022-09-16T10:09:13.025Z,14.30
2022-09-16T10:11:48.641Z,14.30
2022-09-16T10:14:27.139Z,14.20
2022-09-16T10:16:54.373Z,14.10
2022-09-16T10:19:26.251Z,14.10
2022-09-16T10:21:55.492Z,14.00
2022-09-16T10:24:42.123Z,13.90
2022-09-16T10:27:24.666Z,13.90
2022-09-16T10:30:12.156Z,13.90
2022-09-16T10:33:02.265Z,13.80
2022-09-16T10:35:40.308Z,13.80
2022-09-16T10:38:17.981Z,13.80
2022-09-16T10:40:55.367Z,13.70
2022-09-16T10:43:22.618Z,13.70
2022-09-16T10:45:51.794Z,13.70
2022-09-16T10:48:21.546Z,13.70
2022-09-16T10:50:56.581Z,13.60
2022-09-16T10:53:41.170Z,13.60
2022-09-16T10:56:21.966Z,13.60
2022-09-16T10:58:49.164Z,13.40
2022-09-16T11:01:25.530Z,13.30
2022-09-16T11:04:18.093Z,13.10
2022-09-16T11:07:03.928Z,12.80
2022-09-16T11:09:58.548Z,12.60
2022-09-16T11:12:47.113Z,12.50
2022-09-16T11:15:23.912Z,12.40
2022-09-16T11:18:14.786Z,12.30
2022-09-16T11:21:04.753Z,12.10
2022-09-16T11:23:53.857Z,12.20
2022-09-16T11:26:36.938Z,12.10
2022-09-16T11:29:32.681Z,12.00
2022-09-16T11:32:27.858Z,11.90
2022-09-16T11:35:40.972Z,11.90
2022-09-16T11:38:17.261Z,11.90
2022-09-16T11:41:19.662Z,11.90
2022-09-16T11:43:53.897Z,11.90
2022-09-16T11:46:44.224Z,11.80
2022-09-16T11:49:30.303Z,11.80
2022-09-16T11:52:20.302Z,11.70
2022-09-16T11:55:21.862Z,11.60
2022-09-16T11:58:14.910Z,11.50
2022-09-16T12:00:45.041Z,11.40
2022-09-16T12:03:24.906Z,11.40
2022-09-16T12:06:04.894Z,11.40
2022-09-16T12:08:54.693Z,11.40
2022-09-16T12:11:53.759Z,11.40
2022-09-16T12:14:31.810Z,11.40
2022-09-16T12:17:35.931Z,11.40
2022-09-16T12:20:24.391Z,11.40
2022-09-16T12:23:28.899Z,11.50
2022-09-16T12:26:14.962Z,11.50
2022-09-16T12:29:19.743Z,11.60
2022-09-16T12:32:19.765Z,11.60
2022-09-16T12:35:14.722Z,11.60
2022-09-16T12:37:51.813Z,11.50
2022-09-16T12:40:32.258Z,11.50
2022-09-16T12:43:13.603Z,11.50
2022-09-16T12:46:21.854Z,11.50
2022-09-16T12:49:13.494Z,11.50
2022-09-16T12:51:50.645Z,11.50
2022-09-16T12:55:06.619Z,11.50
2022-09-16T12:58:03.309Z,11.60
2022-09-16T13:01:07.615Z,11.60
2022-09-16T13:03:38.129Z,11.70
2022-09-16T13:06:15.080Z,11.70
2022-09-16T13:08:42.286Z,11.70
2022-09-16T13:12:16.552Z,11.60
2022-09-16T13:14:22.647Z,11.60
2022-09-16T13:16:57.279Z,11.50
2022-09-16T13:19:34.769Z,11.50
2022-09-16T13:22:32.788Z,11.40
2022-09-16T13:25:21.366Z,11.40
2022-09-16T13:27:57.540Z,11.20
2022-09-16T13:30:37.279Z,11.10
2022-09-16T13:33:28.215Z,11.00
2022-09-16T13:36:22.825Z,11.00
2022-09-16T13:38:54.479Z,10.90
2022-09-16T13:41:33.957Z,10.90
2022-09-16T13:44:01.576Z,11.00
2022-09-16T13:46:30.151Z,11.00
2022-09-16T13:49:06.490Z,11.00
2022-09-16T13:51:38.342Z,11.00
2022-09-16T13:54:14.122Z,11.00
2022-09-16T13:56:59.489Z,11.10
2022-09-16T13:59:47.270Z,11.10
2022-09-16T14:02:36.539Z,11.10
2022-09-16T14:05:37.797Z,11.20
2022-09-16T14:08:11.935Z,11.20
2022-09-16T14:11:03.417Z,11.20
2022-09-16T14:13:41.993Z,11.30
2022-09-16T14:16:28.529Z,11.30
2022-09-16T14:19:00.783Z,11.30
2022-09-16T14:21:27.990Z,11.30
2022-09-16T14:23:55.201Z,11.20
2022-09-16T14:26:23.739Z,11.20
2022-09-16T14:28:50.977Z,11.10
2022-09-16T14:31:19.771Z,11.10
2022-09-16T14:34:02.019Z,11.10
2022-09-16T14:36:30.544Z,11.20
2022-09-16T14:39:00.471Z,11.20
2022-09-16T14:41:51.897Z,11.20
2022-09-16T14:44:19.148Z,11.20
2022-09-16T14:47:21.913Z,11.30
2022-09-16T14:50:07.776Z,11.30
2022-09-16T14:52:35.610Z,11.30
2022-09-16T14:55:03.605Z,11.40
2022-09-16T14:57:30.900Z,11.30
2022-09-16T14:59:59.362Z,11.30
2022-09-16T15:02:31.519Z,11.30
2022-09-16T15:05:10.669Z,11.30
2022-09-16T15:07:50.647Z,11.30
2022-09-16T15:10:30.313Z,11.30
2022-09-16T15:13:11.346Z,11.30
2022-09-16T15:15:38.604Z,11.30
2022-09-16T15:18:10.844Z,11.30
2022-09-16T15:20:39.626Z,11.30
2022-09-16T15:23:12.242Z,11.30
2022-09-16T15:25:40.333Z,11.30
2022-09-16T15:28:15.011Z,11.40
2022-09-16T15:30:49.924Z,11.40
2022-09-16T15:33:41.004Z,11.40
2022-09-16T15:36:31.505Z,11.40
2022-09-16T15:38:58.734Z,11.40
2022-09-16T15:41:26.043Z,11.40
2022-09-16T15:43:53.270Z,11.40
2022-09-16T15:46:23.443Z,11.50
2022-09-16T15:49:00.738Z,11.50
2022-09-16T15:51:39.578Z,11.50
2022-09-16T15:54:23.497Z,11.50
2022-09-16T15:57:11.179Z,11.50
2022-09-16T15:59:41.221Z,11.40
2022-09-16T16:02:31.371Z,11.40
2022-09-16T16:05:18.521Z,11.40
2022-09-16T16:07:54.349Z,11.40
2022-09-16T16:10:23.783Z,11.40
2022-09-16T16:12:51.842Z,11.40
2022-09-16T16:15:21.454Z,11.40
2022-09-16T16:17:49.480Z,11.40
2022-09-16T16:20:17.331Z,11.40
2022-09-16T16:22:45.210Z,11.50
2022-09-16T16:25:13.603Z,11.50
2022-09-16T16:27:40.848Z,11.50
2022-09-16T16:30:08.520Z,11.50
2022-09-16T16:32:36.565Z,11.50
2022-09-16T16:35:04.015Z,11.50
2022-09-16T16:37:46.043Z,11.50
2022-09-16T16:40:14.868Z,11.50
2022-09-16T16:42:43.580Z,11.50
2022-09-16T16:45:14.659Z,11.60
2022-09-16T16:47:42.543Z,11.60
2022-09-16T16:50:10.231Z,11.60
2022-09-16T16:52:37.536Z,11.60
2022-09-16T16:55:05.422Z,11.60
2022-09-16T16:57:32.915Z,11.60
2022-09-16T17:00:00.155Z,11.60
2022-09-16T17:02:27.457Z,11.60
2022-09-16T17:04:54.701Z,11.60
2022-09-16T17:07:26.169Z,11.60
2022-09-16T17:09:54.556Z,11.70
2022-09-16T17:12:21.779Z,11.60
2022-09-16T17:14:48.985Z,11.60
2022-09-16T17:17:16.185Z,11.60
2022-09-16T17:19:43.388Z,11.60
2022-09-16T17:22:10.913Z,11.60
2022-09-16T17:24:38.113Z,11.60
2022-09-16T17:27:05.377Z,11.60
2022-09-16T17:29:32.586Z,11.60
2022-09-16T17:32:02.409Z,11.60
2022-09-16T17:34:30.140Z,11.60
2022-09-16T17:36:58.217Z,11.60
2022-09-16T17:39:25.787Z,11.60
2022-09-16T17:41:54.409Z,11.60
2022-09-16T17:44:21.672Z,11.50
2022-09-16T17:46:49.573Z,11.50
2022-09-16T17:49:24.210Z,11.50
2022-09-16T17:51:51.745Z,11.50
2022-09-16T17:54:19.068Z,11.50
2022-09-16T17:56:46.713Z,11.40
2022-09-16T17:59:15.934Z,11.40
2022-09-16T18:01:43.199Z,11.40
2022-09-16T18:04:10.757Z,11.40
2022-09-16T18:06:42.774Z,11.40
2022-09-16T18:09:10.388Z,11.40
2022-09-16T18:11:38.259Z,11.40
2022-09-16T18:14:06.465Z,11.40
2022-09-16T18:16:33.902Z,11.40
2022-09-16T18:19:01.652Z,11.40
2022-09-16T18:21:29.128Z,11.40
2022-09-16T18:24:02.276Z,11.40
2022-09-16T18:26:29.817Z,11.40
2022-09-16T18:29:19.896Z,11.40
2022-09-16T18:31:48.214Z,11.30
2022-09-16T18:34:15.986Z,11.30
2022-09-16T18:36:43.300Z,11.30
2022-09-16T18:39:13.746Z,11.30
2022-09-16T18:41:41.491Z,11.30
2022-09-16T18:44:13.923Z,11.30
2022-09-16T18:46:41.250Z,11.30
2022-09-16T18:49:10.046Z,11.40
2022-09-16T18:51:44.347Z,11.40
2022-09-16T18:54:18.289Z,11.40
2022-09-16T18:56:45.534Z,11.40
2022-09-16T18:59:21.424Z,11.40
2022-09-16T19:01:51.375Z,11.40
2022-09-16T19:04:20.399Z,11.40
2022-09-16T19:06:49.269Z,11.50
2022-09-16T19:09:18.900Z,11.50
2022-09-16T19:11:46.317Z,11.50
2022-09-16T19:14:14.193Z,11.50
2022-09-16T19:16:42.898Z,11.50
2022-09-16T19:19:11.054Z,11.50
2022-09-16T19:21:38.420Z,11.40
2022-09-16T19:24:07.146Z,11.40
2022-09-16T19:26:35.885Z,11.40
2022-09-16T19:29:04.969Z,11.40
2022-09-16T19:31:32.854Z,11.50
2022-09-16T19:34:00.412Z,11.50
2022-09-16T19:36:29.623Z,11.50
2022-09-16T19:38:57.137Z,11.50
2022-09-16T19:41:26.362Z,11.50
2022-09-16T19:44:00.806Z,11.50
2022-09-16T19:46:28.653Z,11.50
2022-09-16T19:48:55.933Z,11.50
2022-09-16T19:51:23.777Z,11.50
2022-09-16T19:53:51.623Z,11.50
2022-09-16T19:56:23.775Z,11.40
2022-09-16T19:58:51.294Z,11.50
2022-09-16T20:01:23.421Z,11.40
2022-09-16T20:03:50.822Z,11.50
2022-09-16T20:06:38.684Z,11.40
2022-09-16T20:09:07.743Z,11.40
2022-09-16T20:11:36.106Z,11.40
2022-09-16T20:14:05.836Z,11.40
2022-09-16T20:16:38.018Z,11.40
2022-09-16T20:19:06.999Z,11.40
2022-09-16T20:21:35.114Z,11.50
2022-09-16T20:24:05.548Z,11.50
2022-09-16T20:26:33.104Z,11.50
2022-09-16T20:29:00.485Z,11.60
2022-09-16T20:31:30.964Z,11.50
2022-09-16T20:33:58.429Z,11.50
2022-09-16T20:36:26.745Z,11.50
2022-09-16T20:38:53.993Z,11.50
2022-09-16T20:41:22.637Z,11.60
2022-09-16T20:43:50.341Z,11.60
2022-09-16T20:46:19.941Z,11.60
2022-09-16T20:48:47.321Z,11.60
2022-09-16T20:51:16.836Z,11.60
2022-09-16T20:53:44.466Z,11.70
2022-09-16T20:56:13.377Z,11.70
2022-09-16T20:58:41.049Z,11.70
2022-09-16T21:01:10.596Z,11.70
2022-09-16T21:03:38.390Z,11.70
2022-09-16T21:06:07.566Z,11.70
2022-09-16T21:08:37.749Z,11.70
2022-09-16T21:11:06.437Z,11.60
2022-09-16T21:13:33.933Z,11.60
2022-09-16T21:16:01.412Z,11.70
2022-09-16T21:18:28.729Z,11.70
2022-09-16T21:21:21.806Z,11.70
2022-09-16T21:23:49.476Z,11.70
2022-09-16T21:26:17.703Z,11.70
2022-09-16T21:28:45.613Z,11.70
2022-09-16T21:31:14.651Z,11.70
2022-09-16T21:33:43.016Z,11.70
2022-09-16T21:36:11.578Z,11.80
2022-09-16T21:38:39.098Z,11.80
2022-09-16T21:41:24.829Z,11.70
2022-09-16T21:43:55.433Z,11.80
2022-09-16T21:46:31.711Z,11.80
2022-09-16T21:49:01.180Z,11.80
2022-09-16T21:51:34.893Z,11.70
2022-09-16T21:54:05.476Z,11.70
2022-09-16T21:56:32.814Z,11.60
2022-09-16T21:59:00.172Z,11.60
2022-09-16T22:01:29.974Z,11.50
2022-09-16T22:04:02.135Z,11.50
2022-09-16T22:06:29.553Z,11.40
2022-09-16T22:08:58.582Z,11.40
2022-09-16T22:11:26.778Z,11.30
2022-09-16T22:13:54.857Z,11.30
2022-09-16T22:16:28.667Z,11.40
2022-09-16T22:18:57.279Z,11.30
2022-09-16T22:21:25.633Z,11.30
2022-09-16T22:23:52.845Z,11.20
2022-09-16T22:26:20.790Z,11.20
2022-09-16T22:28:48.257Z,11.10
2022-09-16T22:31:17.786Z,11.10
2022-09-16T22:33:45.677Z,11.10
2022-09-16T22:36:16.567Z,11.10
2022-09-16T22:38:47.493Z,11.10
2022-09-16T22:41:15.194Z,11.10
2022-09-16T22:43:44.678Z,11.10
2022-09-16T22:46:16.822Z,11.10
2022-09-16T22:48:44.256Z,11.20
2022-09-16T22:51:12.472Z,11.10
2022-09-16T22:53:39.905Z,11.10
2022-09-16T22:56:09.470Z,11.10
2022-09-16T22:58:36.755Z,11.00
2022-09-16T23:01:14.777Z,11.00
2022-09-16T23:03:42.579Z,11.00
2022-09-16T23:06:12.462Z,11.00
2022-09-16T23:08:45.308Z,11.00
2022-09-16T23:11:14.615Z,11.00
2022-09-16T23:13:42.360Z,10.90
2022-09-16T23:16:17.312Z,10.80
2022-09-16T23:18:45.381Z,10.80
2022-09-16T23:21:14.054Z,10.70
2022-09-16T23:23:42.761Z,10.70
2022-09-16T23:26:15.406Z,10.70
2022-09-16T23:28:42.859Z,10.70
2022-09-16T23:31:11.101Z,10.70
2022-09-16T23:33:38.761Z,10.70
2022-09-16T23:36:06.584Z,10.70
2022-09-16T23:38:34.722Z,10.60
2022-09-16T23:41:06.082Z,10.60
2022-09-16T23:43:34.418Z,10.60
2022-09-16T23:46:02.152Z,10.60
2022-09-16T23:48:29.962Z,10.60
2022-09-16T23:50:57.800Z,10.60
2022-09-16T23:53:25.229Z,10.60
2022-09-16T23:55:52.615Z,10.60
2022-09-16T23:58:19.983Z,10.60
